sensor_id;sensor_type;location;lat;lon;timestamp;P1;durP1;ratioP1;P2;durP2;ratioP2
71566;SDS011;59403;47.456;19.120;2023-11-19T00:00:05;17.35;;;8.13;;
71566;SDS011;59403;47.456;19.120;2023-11-19T00:02:36;20.60;;;9.53;;
71566;SDS011;59403;47.456;19.120;2023-11-19T00:05:05;21.25;;;9.98;;
71566;SDS011;59403;47.456;19.120;2023-11-19T00:07:34;20.73;;;9.65;;
71566;SDS011;59403;47.456;19.120;2023-11-19T00:10:01;18.37;;;9.13;;
71566;SDS011;59403;47.456;19.120;2023-11-19T00:12:35;18.33;;;9.00;;
71566;SDS011;59403;47.456;19.120;2023-11-19T00:15:03;16.23;;;8.97;;
71566;SDS011;59403;47.456;19.120;2023-11-19T00:17:34;20.23;;;9.52;;
71566;SDS011;59403;47.456;19.120;2023-11-19T00:20:00;18.98;;;8.75;;
71566;SDS011;59403;47.456;19.120;2023-11-19T00:22:32;19.62;;;8.93;;
71566;SDS011;59403;47.456;19.120;2023-11-19T00:24:59;19.73;;;9.50;;
71566;SDS011;59403;47.456;19.120;2023-11-19T00:27:25;18.17;;;8.40;;
71566;SDS011;59403;47.456;19.120;2023-11-19T00:29:52;18.70;;;8.77;;
71566;SDS011;59403;47.456;19.120;2023-11-19T00:32:19;16.65;;;8.05;;
71566;SDS011;59403;47.456;19.120;2023-11-19T00:34:46;22.60;;;9.88;;
71566;SDS011;59403;47.456;19.120;2023-11-19T00:37:13;26.98;;;12.23;;
71566;SDS011;59403;47.456;19.120;2023-11-19T00:39:41;22.63;;;11.10;;
71566;SDS011;59403;47.456;19.120;2023-11-19T00:42:08;20.65;;;9.73;;
71566;SDS011;59403;47.456;19.120;2023-11-19T00:44:36;23.50;;;10.55;;
71566;SDS011;59403;47.456;19.120;2023-11-19T00:47:03;20.02;;;8.48;;
71566;SDS011;59403;47.456;19.120;2023-11-19T00:49:30;22.17;;;9.52;;
71566;SDS011;59403;47.456;19.120;2023-11-19T00:51:57;20.90;;;9.67;;
71566;SDS011;59403;47.456;19.120;2023-11-19T00:54:25;26.15;;;11.27;;
71566;SDS011;59403;47.456;19.120;2023-11-19T00:56:53;26.45;;;11.73;;
71566;SDS011;59403;47.456;19.120;2023-11-19T00:59:20;23.12;;;9.65;;
71566;SDS011;59403;47.456;19.120;2023-11-19T01:01:47;16.60;;;7.95;;
71566;SDS011;59403;47.456;19.120;2023-11-19T01:04:14;17.73;;;8.47;;
71566;SDS011;59403;47.456;19.120;2023-11-19T01:06:41;18.80;;;8.10;;
71566;SDS011;59403;47.456;19.120;2023-11-19T01:09:08;18.17;;;8.13;;
71566;SDS011;59403;47.456;19.120;2023-11-19T01:11:35;15.48;;;7.10;;
71566;SDS011;59403;47.456;19.120;2023-11-19T01:14:03;14.85;;;7.20;;
71566;SDS011;59403;47.456;19.120;2023-11-19T01:16:30;16.63;;;7.77;;
71566;SDS011;59403;47.456;19.120;2023-11-19T01:18:57;15.48;;;6.85;;
71566;SDS011;59403;47.456;19.120;2023-11-19T01:21:24;17.73;;;7.72;;
71566;SDS011;59403;47.456;19.120;2023-11-19T01:23:51;17.45;;;8.00;;
71566;SDS011;59403;47.456;19.120;2023-11-19T01:26:18;20.17;;;8.48;;
71566;SDS011;59403;47.456;19.120;2023-11-19T01:28:45;16.57;;;8.00;;
71566;SDS011;59403;47.456;19.120;2023-11-19T01:31:15;17.60;;;7.87;;
71566;SDS011;59403;47.456;19.120;2023-11-19T01:33:42;17.08;;;8.15;;
71566;SDS011;59403;47.456;19.120;2023-11-19T01:36:12;18.52;;;8.43;;
71566;SDS011;59403;47.456;19.120;2023-11-19T01:38:39;17.17;;;7.90;;
71566;SDS011;59403;47.456;19.120;2023-11-19T01:41:06;15.70;;;7.70;;
71566;SDS011;59403;47.456;19.120;2023-11-19T01:43:34;17.95;;;8.45;;
71566;SDS011;59403;47.456;19.120;2023-11-19T01:46:01;16.92;;;8.05;;
71566;SDS011;59403;47.456;19.120;2023-11-19T01:48:30;18.73;;;7.90;;
71566;SDS011;59403;47.456;19.120;2023-11-19T01:50:59;16.67;;;7.60;;
71566;SDS011;59403;47.456;19.120;2023-11-19T01:53:27;17.50;;;7.80;;
71566;SDS011;59403;47.456;19.120;2023-11-19T01:55:55;15.85;;;7.70;;
71566;SDS011;59403;47.456;19.120;2023-11-19T01:58:23;18.15;;;8.25;;
71566;SDS011;59403;47.456;19.120;2023-11-19T02:04:09;19.62;;;7.78;;
71566;SDS011;59403;47.456;19.120;2023-11-19T02:06:37;19.43;;;8.90;;
71566;SDS011;59403;47.456;19.120;2023-11-19T02:09:07;18.40;;;8.40;;
71566;SDS011;59403;47.456;19.120;2023-11-19T02:11:35;16.62;;;8.70;;
71566;SDS011;59403;47.456;19.120;2023-11-19T02:14:02;18.92;;;9.02;;
71566;SDS011;59403;47.456;19.120;2023-11-19T02:16:29;18.83;;;8.55;;
71566;SDS011;59403;47.456;19.120;2023-11-19T02:18:56;18.17;;;8.57;;
71566;SDS011;59403;47.456;19.120;2023-11-19T02:21:25;19.90;;;8.82;;
71566;SDS011;59403;47.456;19.120;2023-11-19T02:23:51;15.02;;;8.27;;
71566;SDS011;59403;47.456;19.120;2023-11-19T02:26:21;18.90;;;8.35;;
71566;SDS011;59403;47.456;19.120;2023-11-19T02:28:54;18.10;;;9.05;;
71566;SDS011;59403;47.456;19.120;2023-11-19T02:31:21;18.20;;;8.33;;
71566;SDS011;59403;47.456;19.120;2023-11-19T02:33:49;18.17;;;8.18;;
71566;SDS011;59403;47.456;19.120;2023-11-19T02:36:17;19.23;;;8.90;;
71566;SDS011;59403;47.456;19.120;2023-11-19T02:38:44;22.17;;;8.77;;
71566;SDS011;59403;47.456;19.120;2023-11-19T02:41:10;19.83;;;8.82;;
71566;SDS011;59403;47.456;19.120;2023-11-19T02:43:38;20.17;;;9.40;;
71566;SDS011;59403;47.456;19.120;2023-11-19T02:46:06;18.60;;;8.52;;
71566;SDS011;59403;47.456;19.120;2023-11-19T02:48:36;18.90;;;8.43;;
71566;SDS011;59403;47.456;19.120;2023-11-19T02:51:03;20.17;;;8.68;;
71566;SDS011;59403;47.456;19.120;2023-11-19T02:53:30;18.05;;;8.27;;
71566;SDS011;59403;47.456;19.120;2023-11-19T02:55:57;17.93;;;8.07;;
71566;SDS011;59403;47.456;19.120;2023-11-19T02:58:31;17.33;;;8.20;;
71566;SDS011;59403;47.456;19.120;2023-11-19T03:00:59;18.77;;;8.73;;
71566;SDS011;59403;47.456;19.120;2023-11-19T03:03:36;17.92;;;8.35;;
71566;SDS011;59403;47.456;19.120;2023-11-19T03:06:05;18.83;;;9.07;;
71566;SDS011;59403;47.456;19.120;2023-11-19T03:08:35;19.20;;;8.43;;
71566;SDS011;59403;47.456;19.120;2023-11-19T03:11:02;21.48;;;9.75;;
71566;SDS011;59403;47.456;19.120;2023-11-19T03:13:30;17.83;;;8.52;;
71566;SDS011;59403;47.456;19.120;2023-11-19T03:15:56;20.02;;;9.60;;
71566;SDS011;59403;47.456;19.120;2023-11-19T03:18:23;19.25;;;8.75;;
71566;SDS011;59403;47.456;19.120;2023-11-19T03:20:51;23.03;;;9.73;;
71566;SDS011;59403;47.456;19.120;2023-11-19T03:23:18;18.52;;;8.00;;
71566;SDS011;59403;47.456;19.120;2023-11-19T03:25:45;18.45;;;8.30;;
71566;SDS011;59403;47.456;19.120;2023-11-19T03:28:12;22.62;;;8.90;;
71566;SDS011;59403;47.456;19.120;2023-11-19T03:30:39;20.00;;;8.65;;
71566;SDS011;59403;47.456;19.120;2023-11-19T03:33:06;19.97;;;8.97;;
71566;SDS011;59403;47.456;19.120;2023-11-19T03:35:33;20.50;;;9.18;;
71566;SDS011;59403;47.456;19.120;2023-11-19T03:38:01;21.15;;;8.98;;
71566;SDS011;59403;47.456;19.120;2023-11-19T03:40:31;19.73;;;8.90;;
71566;SDS011;59403;47.456;19.120;2023-11-19T03:42:58;23.15;;;8.93;;
71566;SDS011;59403;47.456;19.120;2023-11-19T03:45:25;17.13;;;8.50;;
71566;SDS011;59403;47.456;19.120;2023-11-19T03:47:52;17.02;;;9.00;;
71566;SDS011;59403;47.456;19.120;2023-11-19T03:50:19;18.70;;;8.77;;
71566;SDS011;59403;47.456;19.120;2023-11-19T03:52:46;17.98;;;8.65;;
71566;SDS011;59403;47.456;19.120;2023-11-19T03:55:15;17.55;;;8.63;;
71566;SDS011;59403;47.456;19.120;2023-11-19T03:57:42;20.97;;;8.90;;
71566;SDS011;59403;47.456;19.120;2023-11-19T04:00:09;22.40;;;8.93;;
71566;SDS011;59403;47.456;19.120;2023-11-19T04:02:39;18.40;;;8.50;;
71566;SDS011;59403;47.456;19.120;2023-11-19T04:05:07;17.75;;;8.80;;
71566;SDS011;59403;47.456;19.120;2023-11-19T04:07:35;19.92;;;9.13;;
71566;SDS011;59403;47.456;19.120;2023-11-19T04:10:02;17.87;;;8.47;;
71566;SDS011;59403;47.456;19.120;2023-11-19T04:12:31;18.52;;;8.63;;
71566;SDS011;59403;47.456;19.120;2023-11-19T04:14:59;18.60;;;9.00;;
71566;SDS011;59403;47.456;19.120;2023-11-19T04:17:25;19.08;;;8.85;;
71566;SDS011;59403;47.456;19.120;2023-11-19T04:19:53;19.60;;;9.32;;
71566;SDS011;59403;47.456;19.120;2023-11-19T04:22:20;19.40;;;9.40;;
71566;SDS011;59403;47.456;19.120;2023-11-19T04:24:47;18.33;;;9.48;;
71566;SDS011;59403;47.456;19.120;2023-11-19T04:27:14;18.83;;;9.23;;
71566;SDS011;59403;47.456;19.120;2023-11-19T04:29:42;17.55;;;8.85;;
71566;SDS011;59403;47.456;19.120;2023-11-19T04:32:11;19.77;;;9.15;;
71566;SDS011;59403;47.456;19.120;2023-11-19T04:34:38;24.40;;;9.77;;
71566;SDS011;59403;47.456;19.120;2023-11-19T04:37:05;20.23;;;10.05;;
71566;SDS011;59403;47.456;19.120;2023-11-19T04:39:32;24.27;;;10.07;;
71566;SDS011;59403;47.456;19.120;2023-11-19T04:41:59;20.80;;;9.73;;
71566;SDS011;59403;47.456;19.120;2023-11-19T04:44:26;23.45;;;10.82;;
71566;SDS011;59403;47.456;19.120;2023-11-19T04:46:56;21.37;;;10.50;;
71566;SDS011;59403;47.456;19.120;2023-11-19T04:49:23;25.90;;;10.38;;
71566;SDS011;59403;47.456;19.120;2023-11-19T04:51:52;22.13;;;10.57;;
71566;SDS011;59403;47.456;19.120;2023-11-19T04:54:21;20.85;;;9.73;;
71566;SDS011;59403;47.456;19.120;2023-11-19T04:56:49;22.90;;;9.70;;
71566;SDS011;59403;47.456;19.120;2023-11-19T04:59:17;24.73;;;11.10;;
71566;SDS011;59403;47.456;19.120;2023-11-19T05:01:46;22.65;;;11.10;;
71566;SDS011;59403;47.456;19.120;2023-11-19T05:04:14;22.60;;;11.38;;
71566;SDS011;59403;47.456;19.120;2023-11-19T05:06:41;22.73;;;11.15;;
71566;SDS011;59403;47.456;19.120;2023-11-19T05:09:08;24.10;;;11.40;;
71566;SDS011;59403;47.456;19.120;2023-11-19T05:11:38;26.23;;;11.70;;
71566;SDS011;59403;47.456;19.120;2023-11-19T05:14:05;28.98;;;11.70;;
71566;SDS011;59403;47.456;19.120;2023-11-19T05:16:32;28.30;;;12.90;;
71566;SDS011;59403;47.456;19.120;2023-11-19T05:19:00;26.33;;;11.95;;
71566;SDS011;59403;47.456;19.120;2023-11-19T05:21:27;25.23;;;11.43;;
71566;SDS011;59403;47.456;19.120;2023-11-19T05:23:54;24.37;;;11.53;;
71566;SDS011;59403;47.456;19.120;2023-11-19T05:26:22;25.33;;;11.77;;
71566;SDS011;59403;47.456;19.120;2023-11-19T05:28:50;22.23;;;11.65;;
71566;SDS011;59403;47.456;19.120;2023-11-19T05:31:17;24.23;;;10.98;;
71566;SDS011;59403;47.456;19.120;2023-11-19T05:33:44;24.33;;;11.32;;
71566;SDS011;59403;47.456;19.120;2023-11-19T05:36:11;21.07;;;10.87;;
71566;SDS011;59403;47.456;19.120;2023-11-19T05:38:40;23.87;;;11.30;;
71566;SDS011;59403;47.456;19.120;2023-11-19T05:41:07;23.38;;;11.55;;
71566;SDS011;59403;47.456;19.120;2023-11-19T05:43:34;21.48;;;10.30;;
71566;SDS011;59403;47.456;19.120;2023-11-19T05:46:01;19.83;;;10.48;;
71566;SDS011;59403;47.456;19.120;2023-11-19T05:48:28;21.23;;;10.70;;
71566;SDS011;59403;47.456;19.120;2023-11-19T05:50:55;21.95;;;10.90;;
71566;SDS011;59403;47.456;19.120;2023-11-19T05:53:22;27.27;;;11.35;;
71566;SDS011;59403;47.456;19.120;2023-11-19T05:55:51;25.50;;;11.80;;
71566;SDS011;59403;47.456;19.120;2023-11-19T05:58:22;23.33;;;11.18;;
71566;SDS011;59403;47.456;19.120;2023-11-19T06:00:50;26.00;;;11.37;;
71566;SDS011;59403;47.456;19.120;2023-11-19T06:03:17;25.17;;;10.98;;
71566;SDS011;59403;47.456;19.120;2023-11-19T06:05:46;24.58;;;10.70;;
71566;SDS011;59403;47.456;19.120;2023-11-19T06:08:13;23.20;;;10.75;;
71566;SDS011;59403;47.456;19.120;2023-11-19T06:10:40;25.10;;;11.38;;
71566;SDS011;59403;47.456;19.120;2023-11-19T06:13:09;20.93;;;9.97;;
71566;SDS011;59403;47.456;19.120;2023-11-19T06:15:36;22.27;;;10.68;;
71566;SDS011;59403;47.456;19.120;2023-11-19T06:18:03;24.85;;;11.55;;
71566;SDS011;59403;47.456;19.120;2023-11-19T06:20:30;21.58;;;10.98;;
71566;SDS011;59403;47.456;19.120;2023-11-19T06:22:57;24.95;;;12.00;;
71566;SDS011;59403;47.456;19.120;2023-11-19T06:25:24;24.43;;;11.10;;
71566;SDS011;59403;47.456;19.120;2023-11-19T06:27:51;24.23;;;11.60;;
71566;SDS011;59403;47.456;19.120;2023-11-19T06:30:20;24.60;;;11.63;;
71566;SDS011;59403;47.456;19.120;2023-11-19T06:32:47;26.33;;;11.90;;
71566;SDS011;59403;47.456;19.120;2023-11-19T06:35:13;28.73;;;12.48;;
71566;SDS011;59403;47.456;19.120;2023-11-19T06:37:41;30.03;;;12.40;;
71566;SDS011;59403;47.456;19.120;2023-11-19T06:40:08;28.17;;;12.07;;
71566;SDS011;59403;47.456;19.120;2023-11-19T06:42:37;28.60;;;13.93;;
71566;SDS011;59403;47.456;19.120;2023-11-19T06:45:05;25.50;;;12.45;;
71566;SDS011;59403;47.456;19.120;2023-11-19T06:47:34;26.60;;;12.15;;
71566;SDS011;59403;47.456;19.120;2023-11-19T06:50:01;24.70;;;11.37;;
71566;SDS011;59403;47.456;19.120;2023-11-19T06:52:30;23.00;;;11.07;;
71566;SDS011;59403;47.456;19.120;2023-11-19T06:54:57;23.30;;;12.32;;
71566;SDS011;59403;47.456;19.120;2023-11-19T06:57:24;24.00;;;11.68;;
71566;SDS011;59403;47.456;19.120;2023-11-19T06:59:51;25.77;;;12.15;;
71566;SDS011;59403;47.456;19.120;2023-11-19T07:02:18;25.10;;;12.53;;
71566;SDS011;59403;47.456;19.120;2023-11-19T07:04:46;23.73;;;11.75;;
71566;SDS011;59403;47.456;19.120;2023-11-19T07:07:13;27.37;;;12.50;;
71566;SDS011;59403;47.456;19.120;2023-11-19T07:09:40;23.45;;;12.27;;
71566;SDS011;59403;47.456;19.120;2023-11-19T07:12:07;24.52;;;12.37;;
71566;SDS011;59403;47.456;19.120;2023-11-19T07:14:34;27.00;;;12.60;;
71566;SDS011;59403;47.456;19.120;2023-11-19T07:17:01;27.40;;;13.65;;
71566;SDS011;59403;47.456;19.120;2023-11-19T07:19:28;24.45;;;12.45;;
71566;SDS011;59403;47.456;19.120;2023-11-19T07:21:56;24.37;;;12.43;;
71566;SDS011;59403;47.456;19.120;2023-11-19T07:24:23;23.75;;;11.52;;
71566;SDS011;59403;47.456;19.120;2023-11-19T07:26:53;22.47;;;11.27;;
71566;SDS011;59403;47.456;19.120;2023-11-19T07:29:20;25.33;;;12.50;;
71566;SDS011;59403;47.456;19.120;2023-11-19T07:31:48;26.45;;;12.80;;
71566;SDS011;59403;47.456;19.120;2023-11-19T07:34:15;27.33;;;12.88;;
71566;SDS011;59403;47.456;19.120;2023-11-19T07:36:42;25.58;;;12.13;;
71566;SDS011;59403;47.456;19.120;2023-11-19T07:39:10;23.77;;;11.37;;
71566;SDS011;59403;47.456;19.120;2023-11-19T07:41:37;22.55;;;12.32;;
71566;SDS011;59403;47.456;19.120;2023-11-19T07:44:05;24.52;;;12.68;;
71566;SDS011;59403;47.456;19.120;2023-11-19T07:46:32;24.52;;;12.18;;
71566;SDS011;59403;47.456;19.120;2023-11-19T07:48:59;23.85;;;11.45;;
71566;SDS011;59403;47.456;19.120;2023-11-19T07:51:27;25.00;;;11.90;;
71566;SDS011;59403;47.456;19.120;2023-11-19T07:53:54;21.98;;;11.85;;
71566;SDS011;59403;47.456;19.120;2023-11-19T07:56:24;22.90;;;12.05;;
71566;SDS011;59403;47.456;19.120;2023-11-19T07:58:51;23.92;;;11.98;;
71566;SDS011;59403;47.456;19.120;2023-11-19T08:01:18;26.92;;;14.07;;
71566;SDS011;59403;47.456;19.120;2023-11-19T08:03:45;24.43;;;12.43;;
71566;SDS011;59403;47.456;19.120;2023-11-19T08:06:11;26.10;;;11.12;;
71566;SDS011;59403;47.456;19.120;2023-11-19T08:08:38;25.05;;;12.63;;
71566;SDS011;59403;47.456;19.120;2023-11-19T08:11:05;25.65;;;13.10;;
71566;SDS011;59403;47.456;19.120;2023-11-19T08:13:34;24.90;;;12.82;;
71566;SDS011;59403;47.456;19.120;2023-11-19T08:16:00;25.67;;;12.13;;
71566;SDS011;59403;47.456;19.120;2023-11-19T08:18:27;21.52;;;11.60;;
71566;SDS011;59403;47.456;19.120;2023-11-19T08:20:54;23.62;;;12.13;;
71566;SDS011;59403;47.456;19.120;2023-11-19T08:23:23;19.00;;;10.88;;
71566;SDS011;59403;47.456;19.120;2023-11-19T08:25:50;23.75;;;12.00;;
71566;SDS011;59403;47.456;19.120;2023-11-19T08:28:17;22.33;;;11.23;;
71566;SDS011;59403;47.456;19.120;2023-11-19T08:30:46;24.00;;;11.05;;
71566;SDS011;59403;47.456;19.120;2023-11-19T08:33:13;22.20;;;10.45;;
71566;SDS011;59403;47.456;19.120;2023-11-19T08:35:41;22.17;;;10.77;;
71566;SDS011;59403;47.456;19.120;2023-11-19T08:38:11;17.87;;;9.68;;
71566;SDS011;59403;47.456;19.120;2023-11-19T08:40:41;20.13;;;10.30;;
71566;SDS011;59403;47.456;19.120;2023-11-19T08:43:16;20.40;;;9.77;;
71566;SDS011;59403;47.456;19.120;2023-11-19T08:45:43;18.55;;;10.30;;
71566;SDS011;59403;47.456;19.120;2023-11-19T08:48:12;20.65;;;9.90;;
71566;SDS011;59403;47.456;19.120;2023-11-19T08:50:46;18.20;;;9.95;;
71566;SDS011;59403;47.456;19.120;2023-11-19T08:53:14;17.53;;;9.27;;
71566;SDS011;59403;47.456;19.120;2023-11-19T08:55:43;17.80;;;10.18;;
71566;SDS011;59403;47.456;19.120;2023-11-19T08:58:19;21.50;;;10.43;;
71566;SDS011;59403;47.456;19.120;2023-11-19T09:00:46;18.23;;;8.98;;
71566;SDS011;59403;47.456;19.120;2023-11-19T09:06:48;23.27;;;9.83;;
71566;SDS011;59403;47.456;19.120;2023-11-19T09:12:34;20.10;;;10.25;;
71566;SDS011;59403;47.456;19.120;2023-11-19T09:15:02;19.30;;;10.13;;
71566;SDS011;59403;47.456;19.120;2023-11-19T09:18:06;20.67;;;10.13;;
71566;SDS011;59403;47.456;19.120;2023-11-19T09:20:37;17.00;;;9.27;;
71566;SDS011;59403;47.456;19.120;2023-11-19T09:23:06;18.87;;;9.50;;
71566;SDS011;59403;47.456;19.120;2023-11-19T09:25:37;21.37;;;10.60;;
71566;SDS011;59403;47.456;19.120;2023-11-19T09:28:09;19.50;;;9.45;;
71566;SDS011;59403;47.456;19.120;2023-11-19T09:30:56;19.92;;;9.68;;
71566;SDS011;59403;47.456;19.120;2023-11-19T09:33:24;21.97;;;10.33;;
71566;SDS011;59403;47.456;19.120;2023-11-19T09:36:11;18.65;;;9.98;;
71566;SDS011;59403;47.456;19.120;2023-11-19T09:41:54;18.75;;;9.93;;
71566;SDS011;59403;47.456;19.120;2023-11-19T09:44:23;19.23;;;10.27;;
71566;SDS011;59403;47.456;19.120;2023-11-19T09:49:38;19.17;;;10.00;;
71566;SDS011;59403;47.456;19.120;2023-11-19T10:08:50;21.17;;;10.32;;
71566;SDS011;59403;47.456;19.120;2023-11-19T10:14:56;20.92;;;11.88;;
71566;SDS011;59403;47.456;19.120;2023-11-19T10:21:11;22.73;;;11.68;;
71566;SDS011;59403;47.456;19.120;2023-11-19T10:34:03;24.50;;;11.67;;
71566;SDS011;59403;47.456;19.120;2023-11-19T10:36:41;21.35;;;11.80;;
71566;SDS011;59403;47.456;19.120;2023-11-19T10:39:09;22.00;;;11.77;;
71566;SDS011;59403;47.456;19.120;2023-11-19T10:41:36;24.25;;;12.10;;
71566;SDS011;59403;47.456;19.120;2023-11-19T10:44:04;24.77;;;12.63;;
71566;SDS011;59403;47.456;19.120;2023-11-19T10:46:41;21.67;;;11.93;;
71566;SDS011;59403;47.456;19.120;2023-11-19T10:49:10;19.92;;;10.43;;
71566;SDS011;59403;47.456;19.120;2023-11-19T10:51:38;17.85;;;9.57;;
71566;SDS011;59403;47.456;19.120;2023-11-19T10:54:14;18.05;;;9.43;;
71566;SDS011;59403;47.456;19.120;2023-11-19T10:56:46;17.02;;;9.25;;
71566;SDS011;59403;47.456;19.120;2023-11-19T10:59:18;17.67;;;8.93;;
71566;SDS011;59403;47.456;19.120;2023-11-19T11:01:56;15.80;;;8.40;;
71566;SDS011;59403;47.456;19.120;2023-11-19T11:04:26;15.07;;;8.40;;
71566;SDS011;59403;47.456;19.120;2023-11-19T11:09:51;12.50;;;7.43;;
71566;SDS011;59403;47.456;19.120;2023-11-19T11:12:19;16.07;;;7.90;;
71566;SDS011;59403;47.456;19.120;2023-11-19T11:14:51;14.90;;;7.82;;
71566;SDS011;59403;47.456;19.120;2023-11-19T11:17:39;17.37;;;8.35;;
71566;SDS011;59403;47.456;19.120;2023-11-19T11:20:10;16.33;;;8.35;;
71566;SDS011;59403;47.456;19.120;2023-11-19T11:22:49;18.02;;;9.00;;
71566;SDS011;59403;47.456;19.120;2023-11-19T11:25:58;16.13;;;7.97;;
71566;SDS011;59403;47.456;19.120;2023-11-19T11:28:46;19.70;;;8.65;;
71566;SDS011;59403;47.456;19.120;2023-11-19T11:31:32;14.90;;;8.43;;
71566;SDS011;59403;47.456;19.120;2023-11-19T12:15:24;15.83;;;8.50;;
71566;SDS011;59403;47.456;19.120;2023-11-19T12:17:53;15.75;;;8.40;;
71566;SDS011;59403;47.456;19.120;2023-11-19T12:20:24;15.00;;;8.60;;
71566;SDS011;59403;47.456;19.120;2023-11-19T12:22:59;16.23;;;8.88;;
71566;SDS011;59403;47.456;19.120;2023-11-19T12:25:33;16.25;;;8.60;;
71566;SDS011;59403;47.456;19.120;2023-11-19T12:28:01;15.50;;;8.03;;
71566;SDS011;59403;47.456;19.120;2023-11-19T12:30:31;16.65;;;8.18;;
71566;SDS011;59403;47.456;19.120;2023-11-19T12:32:58;15.05;;;8.00;;
71566;SDS011;59403;47.456;19.120;2023-11-19T12:35:25;15.48;;;7.82;;
71566;SDS011;59403;47.456;19.120;2023-11-19T12:37:54;15.77;;;7.78;;
71566;SDS011;59403;47.456;19.120;2023-11-19T12:40:21;14.70;;;7.90;;
71566;SDS011;59403;47.456;19.120;2023-11-19T12:42:50;13.80;;;7.37;;
71566;SDS011;59403;47.456;19.120;2023-11-19T12:45:18;14.63;;;7.50;;
71566;SDS011;59403;47.456;19.120;2023-11-19T12:47:51;15.13;;;7.78;;
71566;SDS011;59403;47.456;19.120;2023-11-19T13:11:31;11.82;;;6.30;;
71566;SDS011;59403;47.456;19.120;2023-11-19T13:14:00;14.98;;;6.75;;
71566;SDS011;59403;47.456;19.120;2023-11-19T13:16:29;13.27;;;7.53;;
71566;SDS011;59403;47.456;19.120;2023-11-19T13:18:57;16.83;;;7.18;;
71566;SDS011;59403;47.456;19.120;2023-11-19T13:21:26;13.10;;;6.37;;
71566;SDS011;59403;47.456;19.120;2023-11-19T13:23:53;11.93;;;6.55;;
71566;SDS011;59403;47.456;19.120;2023-11-19T13:26:20;11.70;;;6.80;;
71566;SDS011;59403;47.456;19.120;2023-11-19T13:28:47;12.20;;;6.12;;
71566;SDS011;59403;47.456;19.120;2023-11-19T13:31:17;10.50;;;6.55;;
71566;SDS011;59403;47.456;19.120;2023-11-19T13:33:44;11.57;;;5.87;;
71566;SDS011;59403;47.456;19.120;2023-11-19T13:36:11;11.50;;;6.25;;
71566;SDS011;59403;47.456;19.120;2023-11-19T13:38:47;14.45;;;6.25;;
71566;SDS011;59403;47.456;19.120;2023-11-19T13:41:19;12.98;;;6.10;;
71566;SDS011;59403;47.456;19.120;2023-11-19T13:44:39;12.15;;;6.62;;
71566;SDS011;59403;47.456;19.120;2023-11-19T13:47:36;14.33;;;6.73;;
71566;SDS011;59403;47.456;19.120;2023-11-19T13:50:06;12.93;;;6.65;;
71566;SDS011;59403;47.456;19.120;2023-11-19T13:52:39;13.50;;;6.80;;
71566;SDS011;59403;47.456;19.120;2023-11-19T13:55:15;11.25;;;6.15;;
71566;SDS011;59403;47.456;19.120;2023-11-19T13:57:43;11.38;;;6.85;;
71566;SDS011;59403;47.456;19.120;2023-11-19T14:00:10;12.80;;;6.90;;
71566;SDS011;59403;47.456;19.120;2023-11-19T14:02:41;13.23;;;7.00;;
71566;SDS011;59403;47.456;19.120;2023-11-19T14:05:08;13.45;;;6.68;;
71566;SDS011;59403;47.456;19.120;2023-11-19T14:07:39;15.35;;;7.40;;
71566;SDS011;59403;47.456;19.120;2023-11-19T14:10:06;11.95;;;6.65;;
71566;SDS011;59403;47.456;19.120;2023-11-19T14:12:38;12.13;;;6.93;;
71566;SDS011;59403;47.456;19.120;2023-11-19T14:15:05;13.70;;;7.30;;
71566;SDS011;59403;47.456;19.120;2023-11-19T14:17:33;13.05;;;7.35;;
71566;SDS011;59403;47.456;19.120;2023-11-19T14:20:00;14.38;;;7.25;;
71566;SDS011;59403;47.456;19.120;2023-11-19T14:22:27;13.95;;;7.28;;
71566;SDS011;59403;47.456;19.120;2023-11-19T14:24:55;13.47;;;7.00;;
71566;SDS011;59403;47.456;19.120;2023-11-19T14:27:22;13.38;;;7.15;;
71566;SDS011;59403;47.456;19.120;2023-11-19T14:29:50;15.13;;;7.70;;
71566;SDS011;59403;47.456;19.120;2023-11-19T14:32:17;13.93;;;7.82;;
71566;SDS011;59403;47.456;19.120;2023-11-19T14:34:44;14.98;;;7.30;;
71566;SDS011;59403;47.456;19.120;2023-11-19T14:37:14;14.23;;;7.57;;
71566;SDS011;59403;47.456;19.120;2023-11-19T14:39:41;14.73;;;7.72;;
71566;SDS011;59403;47.456;19.120;2023-11-19T14:42:09;14.35;;;8.20;;
71566;SDS011;59403;47.456;19.120;2023-11-19T14:44:36;16.52;;;8.02;;
71566;SDS011;59403;47.456;19.120;2023-11-19T14:47:06;18.10;;;8.57;;
71566;SDS011;59403;47.456;19.120;2023-11-19T14:49:36;15.30;;;8.33;;
71566;SDS011;59403;47.456;19.120;2023-11-19T14:52:03;13.00;;;8.27;;
71566;SDS011;59403;47.456;19.120;2023-11-19T14:54:30;16.25;;;8.80;;
71566;SDS011;59403;47.456;19.120;2023-11-19T14:56:58;14.65;;;8.48;;
71566;SDS011;59403;47.456;19.120;2023-11-19T14:59:25;14.73;;;8.60;;
71566;SDS011;59403;47.456;19.120;2023-11-19T15:01:55;16.97;;;8.40;;
71566;SDS011;59403;47.456;19.120;2023-11-19T15:04:23;15.18;;;9.27;;
71566;SDS011;59403;47.456;19.120;2023-11-19T15:06:50;15.95;;;9.45;;
71566;SDS011;59403;47.456;19.120;2023-11-19T15:09:17;16.65;;;8.73;;
71566;SDS011;59403;47.456;19.120;2023-11-19T15:11:46;16.52;;;9.45;;
71566;SDS011;59403;47.456;19.120;2023-11-19T15:14:13;16.83;;;9.40;;
71566;SDS011;59403;47.456;19.120;2023-11-19T15:16:44;16.87;;;9.10;;
71566;SDS011;59403;47.456;19.120;2023-11-19T15:19:11;20.98;;;10.75;;
71566;SDS011;59403;47.456;19.120;2023-11-19T15:21:40;19.37;;;10.43;;
71566;SDS011;59403;47.456;19.120;2023-11-19T15:24:08;16.87;;;9.70;;
71566;SDS011;59403;47.456;19.120;2023-11-19T15:26:37;18.03;;;9.13;;
71566;SDS011;59403;47.456;19.120;2023-11-19T15:29:06;16.05;;;9.13;;
71566;SDS011;59403;47.456;19.120;2023-11-19T15:31:33;17.77;;;9.73;;
71566;SDS011;59403;47.456;19.120;2023-11-19T15:34:01;18.55;;;9.93;;
71566;SDS011;59403;47.456;19.120;2023-11-19T15:36:27;19.20;;;11.63;;
71566;SDS011;59403;47.456;19.120;2023-11-19T15:38:59;18.03;;;10.50;;
71566;SDS011;59403;47.456;19.120;2023-11-19T15:41:25;19.60;;;10.15;;
71566;SDS011;59403;47.456;19.120;2023-11-19T15:43:53;19.90;;;10.70;;
71566;SDS011;59403;47.456;19.120;2023-11-19T15:46:19;22.10;;;11.43;;
71566;SDS011;59403;47.456;19.120;2023-11-19T15:48:49;24.30;;;12.95;;
71566;SDS011;59403;47.456;19.120;2023-11-19T15:51:16;65.63;;;33.60;;
71566;SDS011;59403;47.456;19.120;2023-11-19T15:53:43;23.60;;;12.27;;
71566;SDS011;59403;47.456;19.120;2023-11-19T15:56:12;45.03;;;19.92;;
71566;SDS011;59403;47.456;19.120;2023-11-19T15:58:39;22.55;;;12.43;;
71566;SDS011;59403;47.456;19.120;2023-11-19T16:01:06;21.62;;;11.73;;
71566;SDS011;59403;47.456;19.120;2023-11-19T16:03:34;26.60;;;12.13;;
71566;SDS011;59403;47.456;19.120;2023-11-19T16:06:04;33.50;;;15.88;;
71566;SDS011;59403;47.456;19.120;2023-11-19T16:08:33;30.67;;;15.27;;
71566;SDS011;59403;47.456;19.120;2023-11-19T16:11:00;27.50;;;12.75;;
71566;SDS011;59403;47.456;19.120;2023-11-19T16:13:31;24.77;;;12.93;;
71566;SDS011;59403;47.456;19.120;2023-11-19T16:16:02;38.53;;;23.97;;
71566;SDS011;59403;47.456;19.120;2023-11-19T16:18:30;25.62;;;14.80;;
71566;SDS011;59403;47.456;19.120;2023-11-19T16:20:59;31.00;;;19.60;;